Time;durP1;ratioP1;P1;durP2;ratioP2;P2;SDS_P1;SDS_P2;PMS_P1;PMS_P2;Temp;Humidity;BMP_temperature;BMP_pressure;BME280_temperature;BME280_humidity;BME280_pressure;Samples;Min_cycle;Max_cycle;Signal;HPM_P1;HPM_P2
2022/02/01 00:01:52;;;;;;;46.53;24.98;;;128.60;2252.80;;;;;;4951861;29;20038;-73
2022/02/01 00:04:30;;;;;;;81.47;38.95;;;128.50;2252.80;;;;;;4951663;29;20090;-65
2022/02/01 00:07:07;;;;;;;84.80;46.13;;;128.50;2252.80;;;;;;4951431;29;20043;-71
2022/02/01 00:12:20;;;;;;;137.23;83.85;;;128.40;2252.80;;;;;;4951804;29;20037;-75
2022/02/01 00:19:58;;;;;;;146.73;78.68;;;128.40;2252.80;;;;;;4952167;28;20068;-73
2022/02/01 00:33:38;;;;;;;315.73;160.93;;;128.30;2252.80;;;;;;4951547;28;20042;-60
2022/02/01 00:38:59;;;;;;;212.10;114.78;;;128.40;2252.80;;;;;;4896286;29;20472;-73
2022/02/01 00:41:30;;;;;;;134.90;71.35;;;128.50;2252.80;;;;;;4895951;29;20608;-73
2022/02/01 00:43:56;;;;;;;103.95;58.28;;;128.40;2252.80;;;;;;4895876;29;20040;-75
2022/02/01 00:46:22;;;;;;;67.45;42.53;;;128.50;2252.80;;;;;;4896125;29;20029;-73
2022/02/01 00:48:48;;;;;;;43.10;26.38;;;128.30;2252.80;;;;;;4895817;29;20549;-75
2022/02/01 00:51:14;;;;;;;40.67;25.25;;;103.30;2227.20;;;;;;4895875;29;20037;-59
2022/02/01 00:53:41;;;;;;;53.72;33.47;;;103.10;2227.20;;;;;;4895896;29;20045;-75
2022/02/01 00:56:07;;;;;;;67.03;40.10;;;103.00;2227.20;;;;;;4895636;29;20077;-76
2022/02/01 00:58:33;;;;;;;77.20;44.95;;;102.90;2227.20;;;;;;4895843;29;20158;-75
2022/02/01 01:00:59;;;;;;;65.75;39.28;;;102.70;2227.20;;;;;;4895585;29;20029;-58
2022/02/01 01:03:24;;;;;;;79.35;43.58;;;102.90;2227.20;;;;;;4895647;29;20068;-61
2022/02/01 01:05:50;;;;;;;117.07;60.50;;;102.90;2227.20;;;;;;4895654;29;20037;-65
2022/02/01 01:08:17;;;;;;;67.85;40.15;;;103.10;2227.20;;;;;;4895521;29;20028;-65
2022/02/01 01:10:43;;;;;;;64.18;40.70;;;103.10;2227.20;;;;;;4895716;29;20108;-69
2022/02/01 01:54:02;;;;;;;195.95;87.38;;;103.10;2227.20;;;;;;4913622;29;20135;-64
2022/02/01 01:56:33;;;;;;;45.33;22.48;;;103.10;2227.20;;;;;;4946749;28;20031;-75
2022/02/01 01:59:03;;;;;;;173.27;78.43;;;103.00;2227.20;;;;;;4953795;29;20035;-74
2022/02/01 02:01:30;;;;;;;20.60;14.52;;;103.00;2227.20;;;;;;4953615;29;20099;-73
2022/02/01 02:03:57;;;;;;;90.65;42.33;;;102.90;2227.20;;;;;;4953188;29;20457;-59
2022/02/01 02:06:22;;;;;;;39.70;25.13;;;102.80;2227.20;;;;;;4953806;28;20038;-58
2022/02/01 02:08:52;;;;;;;54.33;28.05;;;103.00;2227.20;;;;;;4953302;29;20098;-69
2022/02/01 02:16:41;;;;;;;53.20;28.42;;;103.00;2227.20;;;;;;4953429;29;20034;-74
2022/02/01 02:19:08;;;;;;;23.20;14.88;;;103.00;2227.20;;;;;;4953192;29;20031;-74
2022/02/01 02:21:35;;;;;;;99.00;42.83;;;103.00;2227.20;;;;;;4953477;29;20031;-74
2022/02/01 02:24:01;;;;;;;189.05;81.80;;;103.00;2227.20;;;;;;4953524;29;20031;-72
2022/02/01 02:26:27;;;;;;;64.88;30.60;;;103.10;2227.20;;;;;;4953139;29;20023;-73
2022/02/01 02:28:53;;;;;;;298.83;110.32;;;103.20;2227.20;;;;;;4953312;28;20030;-59
2022/02/01 02:31:23;;;;;;;75.38;32.63;;;103.10;2227.20;;;;;;4953005;29;20027;-73
2022/02/01 02:33:56;;;;;;;26.10;15.60;;;103.20;2227.20;;;;;;4952935;29;20050;-58
2022/02/01 02:36:22;;;;;;;91.72;39.97;;;103.20;2227.20;;;;;;4934149;29;20039;-73
2022/02/01 02:38:55;;;;;;;30.90;17.15;;;103.00;2227.20;;;;;;4933884;29;20040;-74
2022/02/01 02:46:36;;;;;;;30.15;19.92;;;102.70;2227.20;;;;;;4952783;29;20118;-58
2022/02/01 02:49:06;;;;;;;43.60;20.60;;;102.80;2227.20;;;;;;4953273;29;20188;-74
2022/02/01 02:51:33;;;;;;;39.08;20.55;;;102.80;2227.20;;;;;;4952945;29;20486;-68
2022/02/01 02:54:06;;;;;;;23.77;11.07;;;102.70;2227.20;;;;;;4952642;28;20035;-74
2022/02/01 02:56:32;;;;;;;12.07;8.48;;;102.80;2227.20;;;;;;4952873;29;20031;-57
2022/02/01 02:58:58;;;;;;;12.05;8.40;;;102.70;2227.20;;;;;;4952308;28;20031;-74
2022/02/01 03:01:24;;;;;;;32.22;15.65;;;102.70;2227.20;;;;;;4952854;28;20033;-58
2022/02/01 03:03:50;;;;;;;12.57;7.63;;;102.60;2227.20;;;;;;4952636;29;20504;-58
2022/02/01 03:06:16;;;;;;;140.02;58.53;;;102.50;2227.20;;;;;;4952475;28;20035;-69
2022/02/01 03:08:41;;;;;;;16.23;9.13;;;102.40;2227.20;;;;;;4952729;29;20114;-58
2022/02/01 03:11:13;;;;;;;24.90;11.23;;;102.50;2227.20;;;;;;4951964;29;20045;-59
2022/02/01 03:13:43;;;;;;;28.60;12.98;;;102.60;2227.20;;;;;;4952372;29;20039;-74
2022/02/01 03:16:25;;;;;;;15.38;8.07;;;102.50;2227.20;;;;;;4952431;28;20110;-74
2022/02/01 03:21:35;;;;;;;21.00;11.05;;;102.50;2227.20;;;;;;4952722;28;20031;-59
2022/02/01 03:24:01;;;;;;;9.32;6.25;;;102.50;2227.20;;;;;;4952440;29;20023;-62
2022/02/01 03:26:27;;;;;;;28.02;14.52;;;102.50;2227.20;;;;;;4952120;29;20545;-58
2022/02/01 03:28:53;;;;;;;22.08;10.63;;;102.50;2227.20;;;;;;4952625;29;20031;-64
2022/02/01 03:31:19;;;;;;;116.68;50.03;;;102.40;2227.20;;;;;;4952231;29;20027;-73
2022/02/01 03:33:45;;;;;;;40.60;18.48;;;102.50;2227.20;;;;;;4952109;29;20105;-60
2022/02/01 03:36:12;;;;;;;211.20;82.47;;;102.60;2227.20;;;;;;4952235;29;20044;-74
2022/02/01 03:38:37;;;;;;;23.63;11.30;;;102.50;2227.20;;;;;;4952124;29;20027;-58
2022/02/01 03:41:04;;;;;;;11.32;6.85;;;102.50;2227.20;;;;;;4952161;29;20031;-62
2022/02/01 03:43:29;;;;;;;14.07;9.88;;;102.50;2227.20;;;;;;4952172;29;20430;-67
2022/02/01 03:45:55;;;;;;;16.90;11.15;;;102.40;2227.20;;;;;;4951845;29;20023;-59
2022/02/01 03:48:21;;;;;;;13.82;10.00;;;77.70;2227.20;;;;;;4952263;29;20118;-74
2022/02/01 03:50:47;;;;;;;42.10;20.95;;;77.70;2227.20;;;;;;4951974;29;20484;-69
2022/02/01 03:53:13;;;;;;;10.10;7.47;;;102.50;2227.20;;;;;;4952318;29;20512;-71
2022/02/01 03:55:39;;;;;;;26.60;14.10;;;102.50;2227.20;;;;;;4951786;29;20033;-75
2022/02/01 03:58:05;;;;;;;25.58;13.15;;;102.50;2227.20;;;;;;4951847;29;20102;-64
2022/02/01 04:00:31;;;;;;;13.40;7.57;;;77.70;2227.20;;;;;;4951827;29;20028;-74
2022/02/01 04:03:02;;;;;;;7.93;6.40;;;102.40;2227.20;;;;;;4951937;29;20031;-68
2022/02/01 04:05:28;;;;;;;16.42;12.55;;;77.60;2227.20;;;;;;4951651;29;20035;-74
2022/02/01 04:07:54;;;;;;;15.02;9.23;;;77.50;2227.20;;;;;;4951841;29;20039;-73
2022/02/01 04:10:20;;;;;;;15.02;10.70;;;77.60;2227.20;;;;;;4952038;28;20020;-75
2022/02/01 04:12:49;;;;;;;15.63;12.20;;;77.50;2227.20;;;;;;4937811;29;20042;-58
2022/02/01 04:15:15;;;;;;;18.58;12.38;;;77.40;2227.20;;;;;;4955813;29;20023;-60
2022/02/01 04:17:40;;;;;;;15.90;10.35;;;77.30;2227.20;;;;;;4955900;29;20119;-74
2022/02/01 04:20:07;;;;;;;17.38;12.60;;;77.50;2227.20;;;;;;4955865;29;20031;-71
2022/02/01 04:22:33;;;;;;;15.00;10.38;;;77.60;2227.20;;;;;;4955676;29;20423;-58
2022/02/01 04:24:58;;;;;;;14.70;10.77;;;77.50;2227.20;;;;;;4955428;29;20027;-57
2022/02/01 04:27:30;;;;;;;11.63;8.43;;;77.60;2227.20;;;;;;4955436;29;20304;-58
2022/02/01 04:30:08;;;;;;;13.57;9.27;;;77.60;2227.20;;;;;;4955285;29;20491;-58
2022/02/01 04:32:36;;;;;;;12.90;8.43;;;77.70;2227.20;;;;;;4955461;29;20038;-57
2022/02/01 04:35:03;;;;;;;10.77;9.52;;;77.60;2227.20;;;;;;4955183;28;20058;-74
2022/02/01 04:37:29;;;;;;;11.32;7.32;;;77.60;2227.20;;;;;;4955118;29;20516;-57
2022/02/01 04:39:56;;;;;;;17.42;15.80;;;77.70;2227.20;;;;;;4955084;29;20081;-59
2022/02/01 04:42:25;;;;;;;11.10;7.47;;;77.70;2227.20;;;;;;4955285;29;20520;-60
2022/02/01 04:44:50;;;;;;;10.60;7.10;;;77.60;2227.20;;;;;;4955222;29;20556;-57
2022/02/01 04:47:17;;;;;;;9.57;6.53;;;77.50;2227.20;;;;;;4954934;29;20058;-58
2022/02/01 04:49:42;;;;;;;14.88;11.27;;;77.50;2227.20;;;;;;4955259;29;20058;-60
2022/02/01 04:52:08;;;;;;;15.68;13.52;;;77.50;2227.20;;;;;;4955100;29;20061;-70
2022/02/01 04:54:34;;;;;;;15.00;13.50;;;77.60;2227.20;;;;;;4954912;29;20050;-57
2022/02/01 04:57:00;;;;;;;12.73;11.43;;;77.70;2227.20;;;;;;4954727;29;20027;-70
2022/02/01 04:59:26;;;;;;;9.20;6.35;;;102.40;2227.20;;;;;;4954665;29;20489;-58
2022/02/01 05:01:52;;;;;;;13.07;11.70;;;77.50;2227.20;;;;;;4954977;29;20028;-71
2022/02/01 05:04:20;;;;;;;12.50;10.15;;;77.50;2227.20;;;;;;4954683;29;20038;-59
2022/02/01 05:06:49;;;;;;;10.13;8.75;;;77.50;2227.20;;;;;;4954585;29;20446;-57
2022/02/01 05:09:15;;;;;;;11.70;9.45;;;77.60;2227.20;;;;;;4954749;29;20434;-59
2022/02/01 05:11:41;;;;;;;15.25;13.05;;;77.60;2227.20;;;;;;4954698;29;20027;-57
2022/02/01 05:16:56;;;;;;;13.32;11.93;;;77.60;2227.20;;;;;;4954867;29;20094;-57
2022/02/01 05:19:35;;;;;;;15.07;12.90;;;77.70;2227.20;;;;;;4954721;29;20422;-57
2022/02/01 05:22:05;;;;;;;11.30;8.77;;;77.60;2227.20;;;;;;4954243;28;20057;-56
2022/02/01 05:24:34;;;;;;;13.25;7.25;;;77.70;2227.20;;;;;;4954536;29;20059;-58
2022/02/01 05:27:03;;;;;;;22.58;13.75;;;77.60;2227.20;;;;;;4954252;29;20070;-69
2022/02/01 05:29:29;;;;;;;10.25;7.20;;;77.70;2227.20;;;;;;4954332;29;20042;-69
2022/02/01 05:31:58;;;;;;;15.45;10.48;;;77.70;2227.20;;;;;;4954685;29;20929;-57
2022/02/01 05:34:24;;;;;;;10.20;6.93;;;77.70;2227.20;;;;;;4953800;29;20054;-56
2022/02/01 05:36:49;;;;;;;10.80;9.05;;;102.40;2227.20;;;;;;4954183;29;20046;-71
2022/02/01 05:39:16;;;;;;;13.65;8.63;;;102.50;2227.20;;;;;;4954148;29;20039;-57
2022/02/01 05:41:42;;;;;;;12.48;7.90;;;102.40;2227.20;;;;;;4954279;29;20497;-57
2022/02/01 05:44:08;;;;;;;12.65;7.75;;;77.70;2227.20;;;;;;4954159;29;20027;-58
2022/02/01 05:46:35;;;;;;;13.38;8.05;;;77.70;2227.20;;;;;;4954064;29;20462;-67
2022/02/01 05:49:02;;;;;;;12.95;8.15;;;77.60;2227.20;;;;;;4954191;29;20042;-71
2022/02/01 05:51:27;;;;;;;14.65;8.95;;;77.50;2227.20;;;;;;4953748;29;20035;-57
2022/02/01 05:53:53;;;;;;;15.13;8.95;;;77.70;2227.20;;;;;;4953891;29;20046;-57
2022/02/01 05:56:19;;;;;;;11.45;7.45;;;77.70;2227.20;;;;;;4953753;29;21090;-63
2022/02/01 05:58:46;;;;;;;8.40;6.78;;;77.70;2227.20;;;;;;4953897;29;20038;-62
2022/02/01 06:01:12;;;;;;;11.63;7.55;;;77.70;2227.20;;;;;;4953662;29;20079;-72
2022/02/01 06:03:38;;;;;;;15.48;7.93;;;77.70;2227.20;;;;;;4953534;29;20043;-57
2022/02/01 06:06:04;;;;;;;8.48;6.82;;;77.70;2227.20;;;;;;4953687;29;20035;-66
2022/02/01 06:08:30;;;;;;;11.52;7.75;;;102.40;2227.20;;;;;;4953770;29;20488;-57
2022/02/01 06:10:56;;;;;;;13.55;7.57;;;102.40;2227.20;;;;;;4953515;29;20406;-58
2022/02/01 06:13:22;;;;;;;9.02;6.22;;;77.70;2227.20;;;;;;4953597;29;20035;-58
2022/02/01 06:15:47;;;;;;;9.52;6.80;;;102.40;2227.20;;;;;;4953429;29;20098;-61
2022/02/01 06:18:13;;;;;;;10.35;7.22;;;102.40;2227.20;;;;;;4953524;29;20038;-57
2022/02/01 06:20:39;;;;;;;10.65;7.10;;;102.40;2227.20;;;;;;4953382;29;20034;-70
2022/02/01 06:23:13;;;;;;;13.57;7.95;;;77.70;2227.20;;;;;;4953630;29;20052;-57
2022/02/01 06:25:48;;;;;;;10.93;8.82;;;77.70;2227.20;;;;;;4953528;29;20046;-56
2022/02/01 06:28:19;;;;;;;10.60;7.30;;;77.70;2227.20;;;;;;4953318;29;20046;-57
2022/02/01 06:30:46;;;;;;;7.75;6.55;;;102.50;2227.20;;;;;;4953413;29;20035;-55
2022/02/01 06:33:13;;;;;;;10.05;5.90;;;102.40;2227.20;;;;;;4952351;28;20088;-55
2022/02/01 06:35:39;;;;;;;12.52;9.60;;;102.40;2227.20;;;;;;4952955;29;20063;-58
2022/02/01 06:38:05;;;;;;;10.80;8.90;;;102.40;2227.20;;;;;;4953146;29;20031;-56
2022/02/01 06:40:31;;;;;;;11.50;9.95;;;102.40;2227.20;;;;;;4952915;29;20483;-56
2022/02/01 06:42:57;;;;;;;14.85;11.25;;;102.50;2227.20;;;;;;4952939;29;20035;-55
2022/02/01 06:45:23;;;;;;;21.88;15.73;;;77.70;2227.20;;;;;;4952887;29;20038;-55
2022/02/01 06:47:49;;;;;;;14.05;10.95;;;102.40;2227.20;;;;;;4952978;29;20023;-56
2022/02/01 06:50:19;;;;;;;13.57;12.15;;;102.40;2227.20;;;;;;4952999;29;20038;-56
2022/02/01 06:52:46;;;;;;;17.88;13.57;;;102.40;2227.20;;;;;;4952891;29;20105;-57
2022/02/01 06:55:13;;;;;;;11.98;10.77;;;102.40;2227.20;;;;;;4953150;29;20035;-56
2022/02/01 06:57:40;;;;;;;12.05;8.23;;;102.50;2227.20;;;;;;4952516;29;20121;-55
2022/02/01 07:00:08;;;;;;;18.90;15.13;;;102.40;2227.20;;;;;;4952622;29;20501;-55
2022/02/01 07:02:34;;;;;;;25.83;19.17;;;77.70;2227.20;;;;;;4952612;29;20074;-57
2022/02/01 07:05:01;;;;;;;12.25;7.95;;;102.50;2227.20;;;;;;4952161;29;20030;-58
2022/02/01 07:07:27;;;;;;;18.42;15.38;;;102.60;2227.20;;;;;;4952584;29;20106;-57
2022/02/01 07:09:52;;;;;;;10.38;6.85;;;102.50;2227.20;;;;;;4952690;29;20148;-55
2022/02/01 07:12:18;;;;;;;11.38;8.20;;;102.40;2227.20;;;;;;4952318;29;20051;-57
2022/02/01 07:14:44;;;;;;;8.50;6.32;;;102.60;2227.20;;;;;;4952500;29;20043;-56
2022/02/01 07:17:09;;;;;;;17.25;12.00;;;102.60;2227.20;;;;;;4952461;29;20058;-58
2022/02/01 07:19:35;;;;;;;17.98;10.30;;;102.70;2227.20;;;;;;4952502;29;20027;-58
2022/02/01 07:22:01;;;;;;;12.25;8.80;;;102.70;2227.20;;;;;;4952589;29;20035;-57
2022/02/01 07:24:36;;;;;;;12.20;8.23;;;102.70;2227.20;;;;;;4934686;29;20394;-57
2022/02/01 07:27:10;;;;;;;10.07;6.40;;;102.60;2227.20;;;;;;4952145;29;20034;-54
2022/02/01 07:29:37;;;;;;;10.32;7.85;;;102.70;2227.20;;;;;;4952039;29;20034;-56
2022/02/01 07:32:03;;;;;;;10.63;6.97;;;102.60;2227.20;;;;;;4952340;29;20031;-54
2022/02/01 07:34:29;;;;;;;13.75;9.05;;;102.50;2227.20;;;;;;4951669;29;20103;-57
2022/02/01 07:36:54;;;;;;;14.43;8.98;;;102.50;2227.20;;;;;;4952364;29;20035;-58
2022/02/01 07:39:20;;;;;;;10.35;7.80;;;102.50;2227.20;;;;;;4951973;29;20027;-57
2022/02/01 07:41:46;;;;;;;12.23;9.13;;;102.40;2227.20;;;;;;4952060;29;20032;-55
2022/02/01 07:44:12;;;;;;;11.20;7.53;;;102.60;2227.20;;;;;;4952421;28;20034;-58
2022/02/01 07:46:37;;;;;;;9.65;7.80;;;102.60;2227.20;;;;;;4952094;29;20442;-57
2022/02/01 07:49:04;;;;;;;8.63;6.72;;;102.50;2227.20;;;;;;4952239;29;20039;-54
2022/02/01 07:51:30;;;;;;;16.70;11.32;;;102.70;2227.20;;;;;;4951850;29;20031;-54
2022/02/01 07:53:55;;;;;;;12.35;8.93;;;102.50;2227.20;;;;;;4951997;29;20039;-58
2022/02/01 07:56:21;;;;;;;14.15;8.48;;;102.60;2227.20;;;;;;4951968;29;20459;-57
2022/02/01 07:58:47;;;;;;;14.65;8.10;;;102.80;2227.20;;;;;;4951709;29;20031;-54
2022/02/01 08:01:12;;;;;;;13.07;8.38;;;102.60;2227.20;;;;;;4951885;29;20043;-56
2022/02/01 08:03:38;;;;;;;15.20;8.45;;;102.90;2227.20;;;;;;4951569;29;20087;-57
2022/02/01 08:06:04;;;;;;;9.48;6.85;;;103.00;2227.20;;;;;;4951845;29;20363;-57
2022/02/01 08:08:30;;;;;;;15.18;10.90;;;103.10;2227.20;;;;;;4951790;29;20087;-54
2022/02/01 08:10:57;;;;;;;15.77;8.85;;;103.10;2227.20;;;;;;4951812;29;20038;-58
2022/02/01 08:21:10;;;;;;;16.77;12.05;;;103.30;2227.20;;;;;;4951789;29;20382;-58
2022/02/01 08:23:36;;;;;;;15.45;11.57;;;128.20;2252.80;;;;;;4951969;29;20027;-57
2022/02/01 08:26:01;;;;;;;17.65;15.10;;;128.20;2252.80;;;;;;4951765;29;20024;-57
2022/02/01 08:28:27;;;;;;;32.65;24.88;;;128.40;2252.80;;;;;;4951594;28;20027;-57
2022/02/01 08:30:54;;;;;;;23.00;16.38;;;128.70;2252.80;;;;;;4951788;29;20019;-57
2022/02/01 08:33:22;;;;;;;19.13;14.77;;;128.70;2252.80;;;;;;4951252;29;20043;-54
2022/02/01 08:35:48;;;;;;;14.80;11.38;;;128.80;2252.80;;;;;;4951437;29;20406;-57
2022/02/01 08:38:14;;;;;;;18.17;14.63;;;128.90;2252.80;;;;;;4951833;29;20038;-58
2022/02/01 08:40:40;;;;;;;14.82;12.63;;;153.70;2252.80;;;;;;4951474;29;20031;-57
2022/02/01 08:43:06;;;;;;;16.45;12.45;;;153.70;2252.80;;;;;;4951311;29;20035;-57
2022/02/01 08:45:32;;;;;;;17.33;12.52;;;153.70;2252.80;;;;;;4951492;29;20031;-57
2022/02/01 08:47:58;;;;;;;16.50;12.23;;;128.90;2252.80;;;;;;4951296;29;20110;-54
2022/02/01 08:50:29;;;;;;;14.80;11.18;;;153.60;2252.80;;;;;;4951513;29;20035;-54
2022/02/01 08:53:11;;;;;;;19.83;11.15;;;153.60;2252.80;;;;;;4951541;29;20489;-55
2022/02/01 08:55:49;;;;;;;17.02;13.68;;;128.80;2252.80;;;;;;4951322;29;20027;-57
2022/02/01 08:58:14;;;;;;;20.13;14.57;;;128.70;2252.80;;;;;;4954491;29;20039;-57
2022/02/01 09:00:40;;;;;;;28.75;19.80;;;128.60;2252.80;;;;;;4955044;29;20034;-58
2022/02/01 09:03:07;;;;;;;23.42;12.15;;;128.80;2252.80;;;;;;4955059;29;20027;-54
2022/02/01 09:05:33;;;;;;;15.38;11.95;;;128.90;2252.80;;;;;;4954697;29;20066;-55
2022/02/01 09:08:03;;;;;;;18.13;11.32;;;128.90;2252.80;;;;;;4954548;29;20542;-54
2022/02/01 09:10:32;;;;;;;16.10;11.68;;;128.90;2252.80;;;;;;4949232;29;20083;-54
2022/02/01 09:12:59;;;;;;;23.27;15.13;;;153.80;2252.80;;;;;;4954327;29;20394;-54
2022/02/01 09:15:26;;;;;;;22.55;12.98;;;153.70;2252.80;;;;;;4954693;29;20384;-55
2022/02/01 09:17:54;;;;;;;14.95;11.07;;;154.00;2252.80;;;;;;4954604;29;20027;-57
2022/02/01 09:20:20;;;;;;;25.83;15.23;;;154.10;2252.80;;;;;;4937190;29;20031;-57
2022/02/01 09:22:46;;;;;;;17.13;11.82;;;154.40;2252.80;;;;;;4954700;29;20028;-56
2022/02/01 09:25:13;;;;;;;21.95;13.20;;;154.50;2252.80;;;;;;4954693;29;20031;-58
2022/02/01 09:27:39;;;;;;;16.45;10.82;;;179.20;2252.80;;;;;;4954246;29;20031;-57
2022/02/01 09:30:06;;;;;;;20.50;11.95;;;179.30;2252.80;;;;;;4954436;29;20133;-55
2022/02/01 09:32:32;;;;;;;18.42;12.02;;;179.70;2252.80;;;;;;4954462;29;20397;-55
2022/02/01 09:34:57;;;;;;;25.75;14.52;;;179.80;2252.80;;;;;;4954149;29;20057;-57
2022/02/01 09:37:23;;;;;;;18.95;12.38;;;180.10;2252.80;;;;;;4954422;29;20386;-55
2022/02/01 09:39:50;;;;;;;18.92;11.35;;;179.80;2252.80;;;;;;4954005;29;20045;-57
2022/02/01 09:42:16;;;;;;;19.48;12.60;;;179.90;2252.80;;;;;;4953904;29;20420;-55
2022/02/01 09:44:44;;;;;;;18.95;13.07;;;179.60;2252.80;;;;;;4954266;29;20474;-55
2022/02/01 09:47:10;;;;;;;19.58;12.70;;;179.50;2252.80;;;;;;4954048;29;20035;-58
2022/02/01 09:49:37;;;;;;;24.08;12.65;;;179.60;2252.80;;;;;;4953699;29;20024;-55
2022/02/01 09:52:04;;;;;;;23.77;15.32;;;179.40;2252.80;;;;;;4953849;29;20182;-55
2022/02/01 09:54:30;;;;;;;33.90;21.60;;;179.30;2252.80;;;;;;4953666;29;20042;-58
2022/02/01 09:56:58;;;;;;;23.55;16.35;;;154.50;2252.80;;;;;;4953515;29;20462;-55
2022/02/01 09:59:34;;;;;;;29.17;19.58;;;154.50;2252.80;;;;;;4953759;29;20031;-58
2022/02/01 10:02:09;;;;;;;21.60;13.93;;;154.00;2252.80;;;;;;4953620;29;20070;-58
2022/02/01 10:04:36;;;;;;;24.95;14.90;;;153.90;2252.80;;;;;;4953595;29;20078;-57
2022/02/01 10:07:12;;;;;;;19.98;12.75;;;153.90;2252.80;;;;;;4953798;29;20035;-54
2022/02/01 10:09:57;;;;;;;25.90;15.90;;;153.90;2252.80;;;;;;4952333;28;20027;-54
2022/02/01 10:12:28;;;;;;;23.55;13.13;;;153.90;2252.80;;;;;;4953452;29;20027;-54
2022/02/01 10:15:04;;;;;;;27.75;14.38;;;153.90;2252.80;;;;;;4953566;29;20047;-58
2022/02/01 10:17:43;;;;;;;26.52;14.32;;;153.90;2252.80;;;;;;4953412;29;20126;-54
2022/02/01 10:20:09;;;;;;;28.52;15.30;;;154.00;2252.80;;;;;;4953015;29;20501;-53
2022/02/01 10:22:36;;;;;;;28.42;16.88;;;153.80;2252.80;;;;;;4953690;29;20034;-54
2022/02/01 10:25:06;;;;;;;30.67;16.88;;;128.90;2252.80;;;;;;4953359;29;20042;-54
2022/02/01 10:27:34;;;;;;;66.35;43.22;;;153.70;2252.80;;;;;;4953361;29;20553;-54
2022/02/01 10:30:14;;;;;;;46.05;31.42;;;153.60;2252.80;;;;;;4953126;29;20035;-56
2022/02/01 10:35:25;;;;;;;28.10;18.45;;;153.60;2252.80;;;;;;4953031;29;20058;-54
2022/02/01 10:38:10;;;;;;;25.20;16.55;;;128.80;2252.80;;;;;;4953120;29;20493;-54
2022/02/01 10:40:50;;;;;;;26.67;15.85;;;128.90;2252.80;;;;;;4952892;29;20023;-55
2022/02/01 10:43:27;;;;;;;28.33;16.38;;;128.80;2252.80;;;;;;4952562;29;20019;-54
2022/02/01 10:45:55;;;;;;;32.80;18.67;;;153.60;2252.80;;;;;;4953210;29;20039;-58
2022/02/01 10:48:27;;;;;;;32.20;19.77;;;153.60;2252.80;;;;;;4952636;29;20066;-58
2022/02/01 10:51:04;;;;;;;32.55;22.60;;;153.80;2252.80;;;;;;4953039;29;20020;-56
2022/02/01 10:53:30;;;;;;;29.27;18.40;;;153.90;2252.80;;;;;;4952683;29;20095;-59
2022/02/01 10:55:58;;;;;;;29.67;18.15;;;153.80;2252.80;;;;;;4952829;29;20407;-55
2022/02/01 10:58:24;;;;;;;25.83;17.58;;;153.70;2252.80;;;;;;4952693;29;20086;-58
2022/02/01 11:00:51;;;;;;;24.67;17.30;;;153.70;2252.80;;;;;;4952682;29;20106;-59
2022/02/01 11:03:16;;;;;;;73.57;44.80;;;153.80;2252.80;;;;;;4952615;29;20027;-57
2022/02/01 11:05:48;;;;;;;31.38;18.23;;;153.70;2252.80;;;;;;4952924;29;20492;-59
2022/02/01 11:08:16;;;;;;;30.83;16.95;;;153.60;2252.80;;;;;;4952802;29;20116;-57
2022/02/01 11:10:56;;;;;;;35.85;16.92;;;153.90;2252.80;;;;;;4952804;29;20486;-57
2022/02/01 11:13:23;;;;;;;35.60;25.70;;;153.80;2252.80;;;;;;4952713;28;20421;-57
2022/02/01 11:15:59;;;;;;;31.20;17.70;;;128.90;2252.80;;;;;;4951449;29;20142;-55
2022/02/01 11:18:26;;;;;;;29.92;17.02;;;153.60;2252.80;;;;;;4951680;29;20097;-57
2022/02/01 11:21:09;;;;;;;27.08;17.10;;;128.80;2252.80;;;;;;4951193;28;20029;-58
2022/02/01 11:23:48;;;;;;;25.92;17.00;;;153.60;2252.80;;;;;;4951613;28;20114;-58
2022/02/01 11:26:21;;;;;;;27.60;17.33;;;128.90;2252.80;;;;;;4951518;29;20034;-58
2022/02/01 11:31:45;;;;;;;25.33;17.63;;;153.60;2252.80;;;;;;4951241;29;20109;-55
2022/02/01 11:34:24;;;;;;;29.55;18.35;;;153.70;2252.80;;;;;;4951341;29;20071;-59
2022/02/01 11:36:56;;;;;;;28.15;18.67;;;153.80;2252.80;;;;;;4951177;29;20074;-56
2022/02/01 11:39:23;;;;;;;31.88;19.33;;;153.60;2252.80;;;;;;4951145;29;20084;-59
2022/02/01 11:41:50;;;;;;;31.95;18.40;;;153.60;2252.80;;;;;;4951174;29;20036;-57
2022/02/01 11:44:21;;;;;;;29.60;18.75;;;128.70;2252.80;;;;;;4951172;28;20042;-54
2022/02/01 11:47:12;;;;;;;46.72;32.83;;;128.70;2252.80;;;;;;4951035;29;20023;-57
2022/02/01 11:49:56;;;;;;;36.03;20.38;;;128.70;2252.80;;;;;;4950917;29;20027;-57
2022/02/01 11:52:24;;;;;;;34.72;24.52;;;128.70;2252.80;;;;;;4951048;29;20023;-57
2022/02/01 11:55:01;;;;;;;25.42;19.40;;;128.50;2252.80;;;;;;4950747;28;20035;-57
2022/02/01 11:57:29;;;;;;;32.30;22.38;;;128.40;2252.80;;;;;;4933606;29;20031;-57
2022/02/01 11:59:59;;;;;;;32.10;19.67;;;128.50;2252.80;;;;;;4951148;29;20114;-57
2022/02/01 12:02:31;;;;;;;32.45;20.85;;;128.70;2252.80;;;;;;4950997;29;20031;-58
2022/02/01 12:05:31;;;;;;;32.70;21.42;;;128.90;2252.80;;;;;;4950665;29;20061;-57
2022/02/01 12:08:14;;;;;;;32.03;21.73;;;153.70;2252.80;;;;;;4891629;29;20039;-58
2022/02/01 12:10:44;;;;;;;;;;;153.80;2252.80;;;;;;4892257;29;20124;-57
2022/02/01 12:13:12;;;;;;;34.42;21.38;;;154.00;2252.80;;;;;;4891597;29;19948;-58
2022/02/01 12:15:41;;;;;;;35.47;20.77;;;154.00;2252.80;;;;;;4891795;29;20479;-59
2022/02/01 12:18:08;;;;;;;29.73;18.10;;;154.00;2252.80;;;;;;4891687;29;20045;-57
2022/02/01 12:20:39;;;;;;;35.30;21.52;;;153.90;2252.80;;;;;;4891810;29;20124;-58
2022/02/01 12:23:24;;;;;;;29.23;20.17;;;153.80;2252.80;;;;;;4891730;29;20499;-58
2022/02/01 12:25:51;;;;;;;35.67;24.10;;;153.90;2252.80;;;;;;4891612;29;20037;-57
2022/02/01 12:28:22;;;;;;;29.85;19.13;;;153.80;2252.80;;;;;;4891394;29;20495;-58
2022/02/01 12:30:50;;;;;;;29.05;20.38;;;153.70;2252.80;;;;;;4891470;29;20040;-54
2022/02/01 12:33:21;;;;;;;39.85;25.92;;;153.80;2252.80;;;;;;4894772;29;20127;-58
2022/02/01 12:35:51;;;;;;;42.58;25.48;;;128.80;2252.80;;;;;;4895122;29;20067;-57
2022/02/01 12:38:22;;;;;;;37.20;24.27;;;128.70;2252.80;;;;;;4895068;29;20480;-57
2022/02/01 12:41:01;;;;;;;40.83;26.42;;;128.80;2252.80;;;;;;4895054;29;20460;-57
2022/02/01 12:43:31;;;;;;;40.58;24.05;;;128.80;2252.80;;;;;;4923677;29;20079;-57
2022/02/01 12:46:06;;;;;;;36.05;24.95;;;128.70;2252.80;;;;;;4954323;29;20027;-57
2022/02/01 12:48:32;;;;;;;46.60;29.95;;;128.70;2252.80;;;;;;4954378;29;20035;-55
2022/02/01 12:51:04;;;;;;;44.13;27.30;;;128.90;2252.80;;;;;;4954082;29;20030;-57
2022/02/01 12:53:41;;;;;;;39.28;27.70;;;153.60;2252.80;;;;;;4953920;29;20028;-54
2022/02/01 12:56:22;;;;;;;39.15;24.83;;;153.70;2252.80;;;;;;4953946;29;20486;-57
2022/02/01 12:59:02;;;;;;;46.85;29.25;;;153.70;2252.80;;;;;;4953962;29;20123;-55
2022/02/01 13:01:33;;;;;;;33.00;26.20;;;153.60;2252.80;;;;;;4953840;28;20091;-57
2022/02/01 13:03:59;;;;;;;38.80;24.95;;;153.60;2252.80;;;;;;4953870;29;20035;-57
2022/02/01 13:06:28;;;;;;;36.38;23.20;;;128.80;2252.80;;;;;;4953959;29;20027;-57
2022/02/01 13:14:43;;;;;;;31.05;19.20;;;153.60;2252.80;;;;;;4953663;29;20103;-55
2022/02/01 13:20:06;;;;;;;34.17;20.58;;;153.90;2252.80;;;;;;4953674;29;20216;-58
2022/02/01 13:22:48;;;;;;;31.27;20.85;;;153.80;2252.80;;;;;;4953632;29;20355;-57
2022/02/01 13:25:14;;;;;;;33.03;21.63;;;153.60;2252.80;;;;;;4953777;29;20359;-57
2022/02/01 13:27:40;;;;;;;33.05;20.02;;;153.90;2252.80;;;;;;4953581;29;20333;-57
2022/02/01 13:30:08;;;;;;;40.00;23.33;;;153.70;2252.80;;;;;;4951742;29;20078;-55
2022/02/01 13:32:39;;;;;;;44.25;26.17;;;128.90;2252.80;;;;;;4951958;29;20038;-59
2022/02/01 13:35:08;;;;;;;35.58;21.77;;;128.70;2252.80;;;;;;4951969;29;20059;-58
2022/02/01 13:37:34;;;;;;;39.20;25.88;;;128.90;2252.80;;;;;;4952038;29;20062;-57
2022/02/01 13:40:02;;;;;;;38.58;21.52;;;153.60;2252.80;;;;;;4952063;29;20273;-57
2022/02/01 13:42:31;;;;;;;40.35;24.52;;;128.60;2252.80;;;;;;4951337;28;20814;-57
2022/02/01 13:45:03;;;;;;;37.15;23.27;;;128.70;2252.80;;;;;;4951541;29;20032;-58
2022/02/01 13:47:44;;;;;;;40.43;24.50;;;128.70;2252.80;;;;;;4951429;29;20731;-57
2022/02/01 13:50:19;;;;;;;39.70;25.90;;;128.70;2252.80;;;;;;4951520;29;20484;-55
2022/02/01 13:53:02;;;;;;;46.80;27.65;;;128.50;2252.80;;;;;;4951665;29;20039;-57